sensor_id;sensor_type;location;lat;lon;timestamp;temperature;humidity
52731;DHT22;38624;53.242;6.974;2023-08-20T00:00:12;15.00;99.90
52731;DHT22;38624;53.242;6.974;2023-08-20T00:02:39;14.90;99.90
52731;DHT22;38624;53.242;6.974;2023-08-20T00:05:06;14.80;99.90
52731;DHT22;38624;53.242;6.974;2023-08-20T00:07:32;14.80;99.90
52731;DHT22;38624;53.242;6.974;2023-08-20T00:09:58;14.70;99.90
52731;DHT22;38624;53.242;6.974;2023-08-20T00:12:23;14.70;99.90
52731;DHT22;38624;53.242;6.974;2023-08-20T00:15:01;14.70;99.90
52731;DHT22;38624;53.242;6.974;2023-08-20T00:17:30;14.70;99.90
52731;DHT22;38624;53.242;6.974;2023-08-20T00:19:56;14.60;99.90
52731;DHT22;38624;53.242;6.974;2023-08-20T00:22:23;14.70;99.90
52731;DHT22;38624;53.242;6.974;2023-08-20T00:24:49;14.70;99.90
52731;DHT22;38624;53.242;6.974;2023-08-20T00:27:15;14.60;99.90
52731;DHT22;38624;53.242;6.974;2023-08-20T00:29:41;14.60;99.90
52731;DHT22;38624;53.242;6.974;2023-08-20T00:32:06;14.60;99.90
52731;DHT22;38624;53.242;6.974;2023-08-20T00:34:33;14.60;99.90
52731;DHT22;38624;53.242;6.974;2023-08-20T00:36:59;14.60;99.90
52731;DHT22;38624;53.242;6.974;2023-08-20T00:39:24;14.60;99.90
52731;DHT22;38624;53.242;6.974;2023-08-20T00:41:50;14.60;99.90
52731;DHT22;38624;53.242;6.974;2023-08-20T00:44:15;14.50;99.90
52731;DHT22;38624;53.242;6.974;2023-08-20T00:46:41;14.50;99.90
52731;DHT22;38624;53.242;6.974;2023-08-20T00:49:06;14.60;99.90
52731;DHT22;38624;53.242;6.974;2023-08-20T00:51:32;14.50;99.90
52731;DHT22;38624;53.242;6.974;2023-08-20T00:53:58;14.50;99.90
52731;DHT22;38624;53.242;6.974;2023-08-20T00:56:24;14.50;99.90
52731;DHT22;38624;53.242;6.974;2023-08-20T00:58:49;14.50;99.90
52731;DHT22;38624;53.242;6.974;2023-08-20T01:01:15;14.50;99.90
52731;DHT22;38624;53.242;6.974;2023-08-20T01:03:41;14.50;99.90
52731;DHT22;38624;53.242;6.974;2023-08-20T01:06:19;14.50;99.90
52731;DHT22;38624;53.242;6.974;2023-08-20T01:08:46;14.50;99.90
52731;DHT22;38624;53.242;6.974;2023-08-20T01:11:16;14.50;99.90
52731;DHT22;38624;53.242;6.974;2023-08-20T01:13:43;14.50;99.90
52731;DHT22;38624;53.242;6.974;2023-08-20T01:16:08;14.50;99.90
52731;DHT22;38624;53.242;6.974;2023-08-20T01:18:34;14.50;99.90
52731;DHT22;38624;53.242;6.974;2023-08-20T01:21:04;14.50;99.90
52731;DHT22;38624;53.242;6.974;2023-08-20T01:28:56;14.50;99.90
52731;DHT22;38624;53.242;6.974;2023-08-20T01:31:22;14.40;99.90
52731;DHT22;38624;53.242;6.974;2023-08-20T01:33:48;14.40;99.90
52731;DHT22;38624;53.242;6.974;2023-08-20T01:36:14;14.40;99.90
52731;DHT22;38624;53.242;6.974;2023-08-20T01:38:39;14.30;99.90
52731;DHT22;38624;53.242;6.974;2023-08-20T01:41:05;14.40;99.90
52731;DHT22;38624;53.242;6.974;2023-08-20T01:43:30;14.30;99.90
52731;DHT22;38624;53.242;6.974;2023-08-20T01:45:56;14.30;99.90
52731;DHT22;38624;53.242;6.974;2023-08-20T01:48:22;14.30;99.90
52731;DHT22;38624;53.242;6.974;2023-08-20T01:50:47;14.30;99.90
52731;DHT22;38624;53.242;6.974;2023-08-20T01:53:13;14.30;99.90
52731;DHT22;38624;53.242;6.974;2023-08-20T01:55:38;14.30;99.90
52731;DHT22;38624;53.242;6.974;2023-08-20T01:58:04;14.30;99.90
52731;DHT22;38624;53.242;6.974;2023-08-20T02:00:30;14.20;99.90
52731;DHT22;38624;53.242;6.974;2023-08-20T02:02:56;14.20;99.90
52731;DHT22;38624;53.242;6.974;2023-08-20T02:05:21;14.20;99.90
52731;DHT22;38624;53.242;6.974;2023-08-20T02:07:47;14.20;99.90
52731;DHT22;38624;53.242;6.974;2023-08-20T02:10:13;14.20;99.90
52731;DHT22;38624;53.242;6.974;2023-08-20T02:12:39;14.20;99.90
52731;DHT22;38624;53.242;6.974;2023-08-20T02:15:04;14.20;99.90
52731;DHT22;38624;53.242;6.974;2023-08-20T02:17:30;14.20;99.90
52731;DHT22;38624;53.242;6.974;2023-08-20T02:19:56;14.20;99.90
52731;DHT22;38624;53.242;6.974;2023-08-20T02:22:21;14.20;99.90
52731;DHT22;38624;53.242;6.974;2023-08-20T02:24:47;14.20;99.90
52731;DHT22;38624;53.242;6.974;2023-08-20T02:27:12;14.20;99.90
52731;DHT22;38624;53.242;6.974;2023-08-20T02:29:38;14.20;99.90
52731;DHT22;38624;53.242;6.974;2023-08-20T02:32:04;14.20;99.90
52731;DHT22;38624;53.242;6.974;2023-08-20T02:34:29;14.10;99.90
52731;DHT22;38624;53.242;6.974;2023-08-20T02:36:55;14.10;99.90
52731;DHT22;38624;53.242;6.974;2023-08-20T02:39:20;14.10;99.90
52731;DHT22;38624;53.242;6.974;2023-08-20T02:41:46;14.10;99.90
52731;DHT22;38624;53.242;6.974;2023-08-20T02:44:11;14.10;99.90
52731;DHT22;38624;53.242;6.974;2023-08-20T02:46:37;14.10;99.90
52731;DHT22;38624;53.242;6.974;2023-08-20T02:49:03;14.10;99.90
52731;DHT22;38624;53.242;6.974;2023-08-20T02:51:29;14.10;99.90
52731;DHT22;38624;53.242;6.974;2023-08-20T02:53:54;14.10;99.90
52731;DHT22;38624;53.242;6.974;2023-08-20T02:56:20;14.10;99.90
52731;DHT22;38624;53.242;6.974;2023-08-20T02:58:45;14.10;99.90
52731;DHT22;38624;53.242;6.974;2023-08-20T03:01:21;14.10;99.90
52731;DHT22;38624;53.242;6.974;2023-08-20T03:03:47;14.00;99.90
52731;DHT22;38624;53.242;6.974;2023-08-20T03:06:12;14.00;99.90
52731;DHT22;38624;53.242;6.974;2023-08-20T03:08:38;14.00;99.90
52731;DHT22;38624;53.242;6.974;2023-08-20T03:11:04;14.00;99.90
52731;DHT22;38624;53.242;6.974;2023-08-20T03:13:30;14.00;99.90
52731;DHT22;38624;53.242;6.974;2023-08-20T03:15:55;14.00;99.90
52731;DHT22;38624;53.242;6.974;2023-08-20T03:18:21;13.90;99.90
52731;DHT22;38624;53.242;6.974;2023-08-20T03:20:46;13.90;99.90
52731;DHT22;38624;53.242;6.974;2023-08-20T03:23:12;13.90;99.90
52731;DHT22;38624;53.242;6.974;2023-08-20T03:25:38;13.80;99.90
52731;DHT22;38624;53.242;6.974;2023-08-20T03:28:03;13.90;99.90
52731;DHT22;38624;53.242;6.974;2023-08-20T03:30:29;13.90;99.90
52731;DHT22;38624;53.242;6.974;2023-08-20T03:32:55;13.80;99.90
52731;DHT22;38624;53.242;6.974;2023-08-20T03:35:20;13.80;99.90
52731;DHT22;38624;53.242;6.974;2023-08-20T03:37:46;13.80;99.90
52731;DHT22;38624;53.242;6.974;2023-08-20T03:40:11;13.80;99.90
52731;DHT22;38624;53.242;6.974;2023-08-20T03:42:37;13.80;99.90
52731;DHT22;38624;53.242;6.974;2023-08-20T03:45:03;13.80;99.90
52731;DHT22;38624;53.242;6.974;2023-08-20T03:47:29;13.80;99.90
52731;DHT22;38624;53.242;6.974;2023-08-20T03:49:54;13.80;99.90
52731;DHT22;38624;53.242;6.974;2023-08-20T03:52:20;13.80;99.90
52731;DHT22;38624;53.242;6.974;2023-08-20T03:54:45;13.80;99.90
52731;DHT22;38624;53.242;6.974;2023-08-20T03:57:11;13.80;99.90
52731;DHT22;38624;53.242;6.974;2023-08-20T03:59:36;13.80;99.90
52731;DHT22;38624;53.242;6.974;2023-08-20T04:02:02;13.80;99.90
52731;DHT22;38624;53.242;6.974;2023-08-20T04:04:28;13.70;99.90
52731;DHT22;38624;53.242;6.974;2023-08-20T04:06:53;13.70;99.90
52731;DHT22;38624;53.242;6.974;2023-08-20T04:09:19;13.70;99.90
52731;DHT22;38624;53.242;6.974;2023-08-20T04:11:45;13.70;99.90
52731;DHT22;38624;53.242;6.974;2023-08-20T04:14:10;13.70;99.90
52731;DHT22;38624;53.242;6.974;2023-08-20T04:16:36;13.70;99.90
52731;DHT22;38624;53.242;6.974;2023-08-20T04:19:01;13.70;99.90
52731;DHT22;38624;53.242;6.974;2023-08-20T04:21:27;13.70;99.90
52731;DHT22;38624;53.242;6.974;2023-08-20T04:23:52;13.70;99.90
52731;DHT22;38624;53.242;6.974;2023-08-20T04:26:18;13.70;99.90
52731;DHT22;38624;53.242;6.974;2023-08-20T04:28:44;13.70;99.90
52731;DHT22;38624;53.242;6.974;2023-08-20T04:31:09;13.70;99.90
52731;DHT22;38624;53.242;6.974;2023-08-20T04:33:35;13.60;99.90
52731;DHT22;38624;53.242;6.974;2023-08-20T04:36:01;13.70;99.90
52731;DHT22;38624;53.242;6.974;2023-08-20T04:38:26;13.60;99.90
52731;DHT22;38624;53.242;6.974;2023-08-20T04:40:52;13.70;99.90
52731;DHT22;38624;53.242;6.974;2023-08-20T04:43:17;13.70;99.90
52731;DHT22;38624;53.242;6.974;2023-08-20T04:45:43;13.70;99.90
52731;DHT22;38624;53.242;6.974;2023-08-20T04:48:08;13.70;99.90
52731;DHT22;38624;53.242;6.974;2023-08-20T04:50:34;13.70;99.90
52731;DHT22;38624;53.242;6.974;2023-08-20T04:52:59;13.80;99.90
52731;DHT22;38624;53.242;6.974;2023-08-20T04:55:26;13.80;99.90
52731;DHT22;38624;53.242;6.974;2023-08-20T04:57:51;13.80;99.90
52731;DHT22;38624;53.242;6.974;2023-08-20T05:00:17;13.90;99.90
52731;DHT22;38624;53.242;6.974;2023-08-20T05:02:42;13.80;99.90
52731;DHT22;38624;53.242;6.974;2023-08-20T05:05:08;13.80;99.90
52731;DHT22;38624;53.242;6.974;2023-08-20T05:07:34;13.90;99.90
52731;DHT22;38624;53.242;6.974;2023-08-20T05:10:00;13.90;99.90
52731;DHT22;38624;53.242;6.974;2023-08-20T05:12:25;13.90;99.90
52731;DHT22;38624;53.242;6.974;2023-08-20T05:14:51;13.90;99.90
52731;DHT22;38624;53.242;6.974;2023-08-20T05:17:16;14.00;99.90
52731;DHT22;38624;53.242;6.974;2023-08-20T05:19:42;14.00;99.90
52731;DHT22;38624;53.242;6.974;2023-08-20T05:22:08;14.00;99.90
52731;DHT22;38624;53.242;6.974;2023-08-20T05:24:33;14.00;99.90
52731;DHT22;38624;53.242;6.974;2023-08-20T05:29:37;14.10;99.90
52731;DHT22;38624;53.242;6.974;2023-08-20T05:32:03;14.10;99.90
52731;DHT22;38624;53.242;6.974;2023-08-20T05:34:29;14.20;99.90
52731;DHT22;38624;53.242;6.974;2023-08-20T05:36:55;14.20;99.90
52731;DHT22;38624;53.242;6.974;2023-08-20T05:39:20;14.30;99.90
52731;DHT22;38624;53.242;6.974;2023-08-20T05:41:46;14.30;99.90
52731;DHT22;38624;53.242;6.974;2023-08-20T05:44:11;14.30;99.90
52731;DHT22;38624;53.242;6.974;2023-08-20T05:46:37;14.40;99.90
52731;DHT22;38624;53.242;6.974;2023-08-20T05:49:02;14.50;99.90
52731;DHT22;38624;53.242;6.974;2023-08-20T05:51:28;14.50;99.90
52731;DHT22;38624;53.242;6.974;2023-08-20T05:53:54;14.60;99.90
52731;DHT22;38624;53.242;6.974;2023-08-20T05:56:19;14.70;99.90
52731;DHT22;38624;53.242;6.974;2023-08-20T05:58:45;14.80;99.90
52731;DHT22;38624;53.242;6.974;2023-08-20T06:01:10;14.90;99.90
52731;DHT22;38624;53.242;6.974;2023-08-20T06:03:36;15.00;99.90
52731;DHT22;38624;53.242;6.974;2023-08-20T06:06:02;15.10;99.90
52731;DHT22;38624;53.242;6.974;2023-08-20T06:08:27;15.20;99.90
52731;DHT22;38624;53.242;6.974;2023-08-20T06:10:53;15.40;99.90
52731;DHT22;38624;53.242;6.974;2023-08-20T06:13:18;15.50;99.90
52731;DHT22;38624;53.242;6.974;2023-08-20T06:15:44;15.60;99.90
52731;DHT22;38624;53.242;6.974;2023-08-20T06:18:10;15.70;99.90
52731;DHT22;38624;53.242;6.974;2023-08-20T06:20:35;15.80;99.90
52731;DHT22;38624;53.242;6.974;2023-08-20T06:23:01;15.80;99.90
52731;DHT22;38624;53.242;6.974;2023-08-20T06:25:26;15.90;99.90
52731;DHT22;38624;53.242;6.974;2023-08-20T06:27:52;16.00;99.90
52731;DHT22;38624;53.242;6.974;2023-08-20T06:30:17;16.20;99.90
52731;DHT22;38624;53.242;6.974;2023-08-20T06:32:44;16.30;99.90
52731;DHT22;38624;53.242;6.974;2023-08-20T06:35:09;16.40;99.90
52731;DHT22;38624;53.242;6.974;2023-08-20T06:37:36;16.60;99.90
52731;DHT22;38624;53.242;6.974;2023-08-20T06:40:01;16.70;99.90
52731;DHT22;38624;53.242;6.974;2023-08-20T06:42:27;16.80;99.90
52731;DHT22;38624;53.242;6.974;2023-08-20T06:44:52;16.90;99.90
52731;DHT22;38624;53.242;6.974;2023-08-20T06:47:18;17.00;99.90
52731;DHT22;38624;53.242;6.974;2023-08-20T06:49:44;17.10;99.90
52731;DHT22;38624;53.242;6.974;2023-08-20T06:52:09;17.20;99.90
52731;DHT22;38624;53.242;6.974;2023-08-20T06:54:35;17.40;99.90
52731;DHT22;38624;53.242;6.974;2023-08-20T06:57:00;17.50;99.90
52731;DHT22;38624;53.242;6.974;2023-08-20T06:59:26;17.90;99.90
52731;DHT22;38624;53.242;6.974;2023-08-20T07:01:52;17.70;99.90
52731;DHT22;38624;53.242;6.974;2023-08-20T07:04:18;17.80;99.90
52731;DHT22;38624;53.242;6.974;2023-08-20T07:06:43;18.00;99.90
52731;DHT22;38624;53.242;6.974;2023-08-20T07:09:10;18.10;99.90
52731;DHT22;38624;53.242;6.974;2023-08-20T07:11:36;18.10;99.90
52731;DHT22;38624;53.242;6.974;2023-08-20T07:14:01;18.30;99.90
52731;DHT22;38624;53.242;6.974;2023-08-20T07:16:28;18.40;99.90
52731;DHT22;38624;53.242;6.974;2023-08-20T07:18:53;18.50;99.90
52731;DHT22;38624;53.242;6.974;2023-08-20T07:21:19;18.60;99.90
52731;DHT22;38624;53.242;6.974;2023-08-20T07:23:44;18.70;99.90
52731;DHT22;38624;53.242;6.974;2023-08-20T07:26:11;18.80;99.90
52731;DHT22;38624;53.242;6.974;2023-08-20T07:28:40;18.90;99.90
52731;DHT22;38624;53.242;6.974;2023-08-20T07:31:22;18.90;99.90
52731;DHT22;38624;53.242;6.974;2023-08-20T07:33:47;19.10;99.90
52731;DHT22;38624;53.242;6.974;2023-08-20T07:36:13;19.20;99.90
52731;DHT22;38624;53.242;6.974;2023-08-20T07:38:39;19.30;99.90
52731;DHT22;38624;53.242;6.974;2023-08-20T07:41:07;19.30;99.90
52731;DHT22;38624;53.242;6.974;2023-08-20T07:43:32;19.40;99.90
52731;DHT22;38624;53.242;6.974;2023-08-20T07:45:58;19.50;99.90
52731;DHT22;38624;53.242;6.974;2023-08-20T07:48:23;19.60;99.90
52731;DHT22;38624;53.242;6.974;2023-08-20T07:50:49;19.60;99.90
52731;DHT22;38624;53.242;6.974;2023-08-20T07:53:14;19.70;99.90
52731;DHT22;38624;53.242;6.974;2023-08-20T07:55:40;19.80;99.90
52731;DHT22;38624;53.242;6.974;2023-08-20T07:58:06;19.80;99.90
52731;DHT22;38624;53.242;6.974;2023-08-20T08:00:31;19.90;99.90
52731;DHT22;38624;53.242;6.974;2023-08-20T08:02:57;20.00;99.90
52731;DHT22;38624;53.242;6.974;2023-08-20T08:05:22;20.10;99.90
52731;DHT22;38624;53.242;6.974;2023-08-20T08:07:48;20.20;99.90
52731;DHT22;38624;53.242;6.974;2023-08-20T08:10:13;20.30;99.90
52731;DHT22;38624;53.242;6.974;2023-08-20T08:12:39;20.40;99.90
52731;DHT22;38624;53.242;6.974;2023-08-20T08:15:05;20.40;99.90
52731;DHT22;38624;53.242;6.974;2023-08-20T08:17:30;20.50;99.90
52731;DHT22;38624;53.242;6.974;2023-08-20T08:19:56;21.00;99.90
52731;DHT22;38624;53.242;6.974;2023-08-20T08:22:23;20.70;99.90
52731;DHT22;38624;53.242;6.974;2023-08-20T08:24:48;20.70;99.90
52731;DHT22;38624;53.242;6.974;2023-08-20T08:27:14;20.80;99.90
52731;DHT22;38624;53.242;6.974;2023-08-20T08:29:39;20.80;99.90
52731;DHT22;38624;53.242;6.974;2023-08-20T08:32:05;20.90;99.90
52731;DHT22;38624;53.242;6.974;2023-08-20T08:34:31;21.00;99.90
52731;DHT22;38624;53.242;6.974;2023-08-20T08:36:56;21.10;99.90
52731;DHT22;38624;53.242;6.974;2023-08-20T08:39:22;21.10;99.90
52731;DHT22;38624;53.242;6.974;2023-08-20T08:41:51;21.10;99.90
52731;DHT22;38624;53.242;6.974;2023-08-20T08:44:17;21.20;99.90
52731;DHT22;38624;53.242;6.974;2023-08-20T08:46:42;21.20;99.90
52731;DHT22;38624;53.242;6.974;2023-08-20T08:49:08;21.30;99.90
52731;DHT22;38624;53.242;6.974;2023-08-20T08:51:34;21.30;99.90
52731;DHT22;38624;53.242;6.974;2023-08-20T08:54:02;21.40;99.90
52731;DHT22;38624;53.242;6.974;2023-08-20T08:56:27;21.50;99.90
52731;DHT22;38624;53.242;6.974;2023-08-20T08:58:53;21.60;99.90
52731;DHT22;38624;53.242;6.974;2023-08-20T09:01:19;21.60;99.90
52731;DHT22;38624;53.242;6.974;2023-08-20T09:03:46;21.70;99.90
52731;DHT22;38624;53.242;6.974;2023-08-20T09:06:11;21.80;99.90
52731;DHT22;38624;53.242;6.974;2023-08-20T09:08:37;21.80;99.90
52731;DHT22;38624;53.242;6.974;2023-08-20T09:11:02;21.90;99.90
52731;DHT22;38624;53.242;6.974;2023-08-20T09:13:38;22.00;99.90
52731;DHT22;38624;53.242;6.974;2023-08-20T09:16:04;22.00;99.90
52731;DHT22;38624;53.242;6.974;2023-08-20T09:18:31;22.10;99.90
52731;DHT22;38624;53.242;6.974;2023-08-20T09:20:57;22.10;99.90
52731;DHT22;38624;53.242;6.974;2023-08-20T09:23:22;22.20;99.90
52731;DHT22;38624;53.242;6.974;2023-08-20T09:25:48;22.30;99.90
52731;DHT22;38624;53.242;6.974;2023-08-20T09:28:14;22.30;99.90
52731;DHT22;38624;53.242;6.974;2023-08-20T09:30:40;22.30;99.90
52731;DHT22;38624;53.242;6.974;2023-08-20T09:33:10;22.50;99.90
52731;DHT22;38624;53.242;6.974;2023-08-20T09:35:36;22.40;99.90
52731;DHT22;38624;53.242;6.974;2023-08-20T09:38:05;22.70;99.90
52731;DHT22;38624;53.242;6.974;2023-08-20T09:40:31;22.70;99.90
52731;DHT22;38624;53.242;6.974;2023-08-20T09:42:56;22.60;99.90
52731;DHT22;38624;53.242;6.974;2023-08-20T09:45:25;22.60;99.90
52731;DHT22;38624;53.242;6.974;2023-08-20T09:47:54;22.70;99.90
52731;DHT22;38624;53.242;6.974;2023-08-20T09:50:20;22.70;99.90
52731;DHT22;38624;53.242;6.974;2023-08-20T09:55:20;22.90;99.90
52731;DHT22;38624;53.242;6.974;2023-08-20T09:57:46;23.00;99.90
52731;DHT22;38624;53.242;6.974;2023-08-20T10:00:12;23.10;99.90
52731;DHT22;38624;53.242;6.974;2023-08-20T10:02:39;23.20;99.90
52731;DHT22;38624;53.242;6.974;2023-08-20T10:05:05;23.30;99.90
52731;DHT22;38624;53.242;6.974;2023-08-20T10:07:31;23.20;99.90
52731;DHT22;38624;53.242;6.974;2023-08-20T10:09:57;23.30;99.90
52731;DHT22;38624;53.242;6.974;2023-08-20T10:12:26;23.40;99.90
52731;DHT22;38624;53.242;6.974;2023-08-20T10:14:52;23.40;99.90
52731;DHT22;38624;53.242;6.974;2023-08-20T10:17:18;23.40;99.90
52731;DHT22;38624;53.242;6.974;2023-08-20T10:19:43;23.40;99.90
52731;DHT22;38624;53.242;6.974;2023-08-20T10:22:09;23.50;99.90
52731;DHT22;38624;53.242;6.974;2023-08-20T10:24:41;23.50;99.90
52731;DHT22;38624;53.242;6.974;2023-08-20T10:27:08;23.40;99.90
52731;DHT22;38624;53.242;6.974;2023-08-20T10:29:35;23.30;99.90
52731;DHT22;38624;53.242;6.974;2023-08-20T10:32:03;23.30;99.90
52731;DHT22;38624;53.242;6.974;2023-08-20T10:34:32;23.40;99.90
52731;DHT22;38624;53.242;6.974;2023-08-20T10:37:08;23.50;99.90
52731;DHT22;38624;53.242;6.974;2023-08-20T10:39:34;23.60;99.90
52731;DHT22;38624;53.242;6.974;2023-08-20T10:42:09;23.80;99.90
52731;DHT22;38624;53.242;6.974;2023-08-20T10:47:23;23.80;99.90
52731;DHT22;38624;53.242;6.974;2023-08-20T10:49:53;23.50;99.90
52731;DHT22;38624;53.242;6.974;2023-08-20T10:52:23;23.40;99.90
52731;DHT22;38624;53.242;6.974;2023-08-20T10:54:52;23.40;99.90
52731;DHT22;38624;53.242;6.974;2023-08-20T10:57:18;23.50;99.90
52731;DHT22;38624;53.242;6.974;2023-08-20T10:59:59;23.70;99.90
52731;DHT22;38624;53.242;6.974;2023-08-20T11:02:26;23.80;99.90
52731;DHT22;38624;53.242;6.974;2023-08-20T11:04:53;24.00;99.90
52731;DHT22;38624;53.242;6.974;2023-08-20T11:07:19;23.90;99.90
52731;DHT22;38624;53.242;6.974;2023-08-20T11:09:45;24.20;99.90
52731;DHT22;38624;53.242;6.974;2023-08-20T11:12:15;24.40;99.90
52731;DHT22;38624;53.242;6.974;2023-08-20T11:14:41;24.60;99.90
52731;DHT22;38624;53.242;6.974;2023-08-20T11:17:07;24.70;99.90
52731;DHT22;38624;53.242;6.974;2023-08-20T11:19:33;24.90;99.90
52731;DHT22;38624;53.242;6.974;2023-08-20T11:21:59;24.60;99.90
52731;DHT22;38624;53.242;6.974;2023-08-20T11:24:27;24.60;99.90
52731;DHT22;38624;53.242;6.974;2023-08-20T11:26:53;24.50;99.90
52731;DHT22;38624;53.242;6.974;2023-08-20T11:29:20;24.30;99.90
52731;DHT22;38624;53.242;6.974;2023-08-20T11:31:46;24.30;99.90
52731;DHT22;38624;53.242;6.974;2023-08-20T11:34:12;24.10;99.90
52731;DHT22;38624;53.242;6.974;2023-08-20T11:36:38;23.80;99.90
52731;DHT22;38624;53.242;6.974;2023-08-20T11:39:05;24.10;99.90
52731;DHT22;38624;53.242;6.974;2023-08-20T11:41:30;24.20;99.90
52731;DHT22;38624;53.242;6.974;2023-08-20T11:43:56;24.30;99.90
52731;DHT22;38624;53.242;6.974;2023-08-20T11:46:22;24.10;99.90
52731;DHT22;38624;53.242;6.974;2023-08-20T11:48:58;24.10;99.90
52731;DHT22;38624;53.242;6.974;2023-08-20T11:51:23;24.30;99.90
52731;DHT22;38624;53.242;6.974;2023-08-20T11:53:49;24.10;99.90
52731;DHT22;38624;53.242;6.974;2023-08-20T11:56:15;23.40;99.90
52731;DHT22;38624;53.242;6.974;2023-08-20T11:58:41;24.00;99.90
52731;DHT22;38624;53.242;6.974;2023-08-20T12:01:09;24.10;99.90
52731;DHT22;38624;53.242;6.974;2023-08-20T12:03:37;24.30;99.90
52731;DHT22;38624;53.242;6.974;2023-08-20T12:08:44;24.30;99.90
52731;DHT22;38624;53.242;6.974;2023-08-20T12:11:09;24.30;99.90
52731;DHT22;38624;53.242;6.974;2023-08-20T12:13:35;24.40;99.90
52731;DHT22;38624;53.242;6.974;2023-08-20T12:16:00;24.50;99.90
52731;DHT22;38624;53.242;6.974;2023-08-20T12:18:26;24.70;99.90
52731;DHT22;38624;53.242;6.974;2023-08-20T12:20:51;24.60;99.90
52731;DHT22;38624;53.242;6.974;2023-08-20T12:23:17;24.80;99.90
52731;DHT22;38624;53.242;6.974;2023-08-20T12:25:43;24.50;99.90
52731;DHT22;38624;53.242;6.974;2023-08-20T12:28:09;24.80;99.90
52731;DHT22;38624;53.242;6.974;2023-08-20T12:30:34;24.80;99.90
52731;DHT22;38624;53.242;6.974;2023-08-20T12:33:04;24.90;99.90
52731;DHT22;38624;53.242;6.974;2023-08-20T12:35:29;25.10;99.90
52731;DHT22;38624;53.242;6.974;2023-08-20T12:37:55;25.20;99.90
52731;DHT22;38624;53.242;6.974;2023-08-20T12:40:20;25.60;99.90
52731;DHT22;38624;53.242;6.974;2023-08-20T12:42:47;25.40;99.90
52731;DHT22;38624;53.242;6.974;2023-08-20T12:45:12;25.70;99.90
52731;DHT22;38624;53.242;6.974;2023-08-20T12:47:39;25.60;99.90
52731;DHT22;38624;53.242;6.974;2023-08-20T12:50:04;25.10;99.90
52731;DHT22;38624;53.242;6.974;2023-08-20T12:52:31;25.10;99.90
52731;DHT22;38624;53.242;6.974;2023-08-20T12:54:57;25.10;99.90
52731;DHT22;38624;53.242;6.974;2023-08-20T12:57:22;25.50;99.90
52731;DHT22;38624;53.242;6.974;2023-08-20T12:59:48;25.50;99.90
52731;DHT22;38624;53.242;6.974;2023-08-20T13:02:14;24.90;99.90
52731;DHT22;38624;53.242;6.974;2023-08-20T13:04:39;24.70;99.90
52731;DHT22;38624;53.242;6.974;2023-08-20T13:07:05;24.60;99.90
52731;DHT22;38624;53.242;6.974;2023-08-20T13:09:31;24.80;99.90
52731;DHT22;38624;53.242;6.974;2023-08-20T13:11:57;24.80;99.90
52731;DHT22;38624;53.242;6.974;2023-08-20T13:14:25;24.90;99.90
52731;DHT22;38624;53.242;6.974;2023-08-20T13:16:51;25.10;99.90
52731;DHT22;38624;53.242;6.974;2023-08-20T13:19:17;25.30;99.90
52731;DHT22;38624;53.242;6.974;2023-08-20T13:21:42;25.20;99.90
52731;DHT22;38624;53.242;6.974;2023-08-20T13:24:08;25.10;99.90
52731;DHT22;38624;53.242;6.974;2023-08-20T13:26:34;25.10;99.90
52731;DHT22;38624;53.242;6.974;2023-08-20T13:29:00;24.90;99.90
52731;DHT22;38624;53.242;6.974;2023-08-20T13:31:25;25.20;99.90
52731;DHT22;38624;53.242;6.974;2023-08-20T13:33:51;25.20;99.90
52731;DHT22;38624;53.242;6.974;2023-08-20T13:36:16;25.20;99.90
52731;DHT22;38624;53.242;6.974;2023-08-20T13:38:42;25.30;99.90
52731;DHT22;38624;53.242;6.974;2023-08-20T13:41:08;25.30;99.90
52731;DHT22;38624;53.242;6.974;2023-08-20T13:43:34;25.40;99.90
52731;DHT22;38624;53.242;6.974;2023-08-20T13:46:00;25.30;99.90
52731;DHT22;38624;53.242;6.974;2023-08-20T13:48:26;25.70;99.90
52731;DHT22;38624;53.242;6.974;2023-08-20T13:50:52;25.90;99.90
52731;DHT22;38624;53.242;6.974;2023-08-20T13:53:17;25.80;99.30
52731;DHT22;38624;53.242;6.974;2023-08-20T13:55:43;25.80;99.90
52731;DHT22;38624;53.242;6.974;2023-08-20T13:58:08;25.50;99.10
52731;DHT22;38624;53.242;6.974;2023-08-20T14:00:34;25.40;98.60
52731;DHT22;38624;53.242;6.974;2023-08-20T14:03:00;25.20;99.00
52731;DHT22;38624;53.242;6.974;2023-08-20T14:05:25;25.30;99.50
52731;DHT22;38624;53.242;6.974;2023-08-20T14:07:51;25.50;99.00
52731;DHT22;38624;53.242;6.974;2023-08-20T14:10:16;25.80;99.70
52731;DHT22;38624;53.242;6.974;2023-08-20T14:12:42;25.80;99.90
52731;DHT22;38624;53.242;6.974;2023-08-20T14:15:08;25.40;99.20
52731;DHT22;38624;53.242;6.974;2023-08-20T14:17:34;25.60;99.90
52731;DHT22;38624;53.242;6.974;2023-08-20T14:20:00;25.90;99.90
52731;DHT22;38624;53.242;6.974;2023-08-20T14:22:25;26.00;99.60
52731;DHT22;38624;53.242;6.974;2023-08-20T14:24:51;26.30;99.90
52731;DHT22;38624;53.242;6.974;2023-08-20T14:27:17;26.20;97.10
52731;DHT22;38624;53.242;6.974;2023-08-20T14:29:42;26.00;97.20
52731;DHT22;38624;53.242;6.974;2023-08-20T14:32:08;26.20;96.50
52731;DHT22;38624;53.242;6.974;2023-08-20T14:34:34;25.90;95.50
52731;DHT22;38624;53.242;6.974;2023-08-20T14:36:59;25.80;95.40
52731;DHT22;38624;53.242;6.974;2023-08-20T14:39:25;25.80;95.30
52731;DHT22;38624;53.242;6.974;2023-08-20T14:41:50;25.80;95.40
52731;DHT22;38624;53.242;6.974;2023-08-20T14:44:16;25.80;95.20
52731;DHT22;38624;53.242;6.974;2023-08-20T14:46:42;25.90;96.20
52731;DHT22;38624;53.242;6.974;2023-08-20T14:49:07;26.00;94.60
52731;DHT22;38624;53.242;6.974;2023-08-20T14:51:33;26.10;96.20
52731;DHT22;38624;53.242;6.974;2023-08-20T14:54:00;26.20;96.00
52731;DHT22;38624;53.242;6.974;2023-08-20T14:56:25;26.20;96.00
52731;DHT22;38624;53.242;6.974;2023-08-20T14:58:51;26.20;95.30
52731;DHT22;38624;53.242;6.974;2023-08-20T15:01:16;26.10;96.10
52731;DHT22;38624;53.242;6.974;2023-08-20T15:03:43;26.40;95.70
52731;DHT22;38624;53.242;6.974;2023-08-20T15:06:08;26.90;94.30
52731;DHT22;38624;53.242;6.974;2023-08-20T15:08:34;27.00;94.60
52731;DHT22;38624;53.242;6.974;2023-08-20T15:11:00;27.80;92.60
52731;DHT22;38624;53.242;6.974;2023-08-20T15:13:27;28.50;92.10
52731;DHT22;38624;53.242;6.974;2023-08-20T15:15:53;29.40;90.90
52731;DHT22;38624;53.242;6.974;2023-08-20T15:18:19;30.00;86.60
52731;DHT22;38624;53.242;6.974;2023-08-20T15:20:45;29.90;84.30
52731;DHT22;38624;53.242;6.974;2023-08-20T15:23:10;30.20;92.20
52731;DHT22;38624;53.242;6.974;2023-08-20T15:25:36;30.20;93.80
52731;DHT22;38624;53.242;6.974;2023-08-20T15:28:02;29.90;94.20
52731;DHT22;38624;53.242;6.974;2023-08-20T15:30:29;30.00;94.60
52731;DHT22;38624;53.242;6.974;2023-08-20T15:32:54;30.10;93.90
52731;DHT22;38624;53.242;6.974;2023-08-20T15:35:20;29.70;94.30
52731;DHT22;38624;53.242;6.974;2023-08-20T15:37:46;29.30;95.10